createdAt,value
2022-10-10T00:01:10.923Z,26.70
2022-10-10T00:03:45.186Z,26.70
2022-10-10T00:06:18.093Z,26.70
2022-10-10T00:08:52.295Z,26.70
2022-10-10T00:11:27.283Z,26.70
2022-10-10T00:14:01.457Z,26.60
2022-10-10T00:16:37.344Z,26.60
2022-10-10T00:19:14.687Z,26.60
2022-10-10T00:21:56.938Z,26.50
2022-10-10T00:24:58.907Z,26.50
2022-10-10T00:27:31.145Z,26.50
2022-10-10T00:30:16.643Z,26.30
2022-10-10T00:32:52.235Z,26.30
2022-10-10T00:35:25.320Z,26.30
2022-10-10T00:38:04.859Z,26.20
2022-10-10T00:40:39.611Z,26.20
2022-10-10T00:43:17.594Z,26.20
2022-10-10T00:48:43.206Z,26.00
2022-10-10T00:51:56.880Z,26.00
2022-10-10T00:55:00.037Z,26.00
2022-10-10T00:57:44.972Z,26.00
2022-10-10T01:00:15.930Z,26.00
2022-10-10T01:02:48.925Z,25.90
2022-10-10T01:05:19.690Z,25.90
2022-10-10T01:07:51.490Z,25.80
2022-10-10T01:10:27.447Z,25.70
2022-10-10T01:13:31.874Z,25.70
2022-10-10T01:16:20.703Z,25.70
2022-10-10T01:20:11.592Z,25.70
2022-10-10T01:23:20.520Z,25.60
2022-10-10T01:26:55.300Z,25.60
2022-10-10T01:29:38.968Z,25.50
2022-10-10T01:32:39.845Z,25.50
2022-10-10T01:35:34.703Z,25.40
2022-10-10T01:38:18.543Z,25.40
2022-10-10T01:41:33.700Z,25.30
2022-10-10T01:44:04.039Z,25.40
2022-10-10T01:47:01.048Z,25.30
2022-10-10T01:50:11.437Z,25.30
2022-10-10T01:52:52.140Z,25.30
2022-10-10T01:55:50.747Z,25.20
2022-10-10T01:58:42.298Z,25.20
2022-10-10T02:01:37.783Z,25.20
2022-10-10T02:04:51.495Z,25.20
2022-10-10T02:07:55.378Z,25.30
2022-10-10T02:10:33.391Z,25.20
2022-10-10T02:13:10.347Z,25.10
2022-10-10T02:15:50.993Z,25.10
2022-10-10T02:18:33.623Z,25.10
2022-10-10T02:21:10.626Z,25.10
2022-10-10T02:23:51.556Z,25.10
2022-10-10T02:26:31.504Z,25.10
2022-10-10T02:29:25.554Z,25.10
2022-10-10T02:32:26.350Z,25.00
2022-10-10T02:34:59.395Z,25.00
2022-10-10T02:37:37.863Z,24.90
2022-10-10T02:40:14.609Z,24.80
2022-10-10T02:42:49.589Z,24.90
2022-10-10T02:45:23.976Z,24.90
2022-10-10T02:47:55.292Z,24.80
2022-10-10T02:50:38.680Z,24.70
2022-10-10T02:53:11.201Z,24.80
2022-10-10T02:55:51.873Z,24.70
2022-10-10T02:58:31.978Z,24.70
2022-10-10T03:01:14.581Z,24.70
2022-10-10T03:03:47.024Z,24.70
2022-10-10T03:06:19.075Z,24.70
2022-10-10T03:08:55.149Z,24.60
2022-10-10T03:11:30.313Z,24.50
2022-10-10T03:14:07.102Z,24.50
2022-10-10T03:16:42.617Z,24.50
2022-10-10T03:19:26.715Z,24.50
2022-10-10T03:22:28.969Z,24.50
2022-10-10T03:24:59.245Z,24.60
2022-10-10T03:27:33.589Z,24.60
2022-10-10T03:30:19.359Z,24.50
2022-10-10T03:32:55.689Z,24.50
2022-10-10T03:35:33.305Z,24.50
2022-10-10T03:38:13.241Z,24.50
2022-10-10T03:40:50.975Z,24.50
2022-10-10T03:43:22.918Z,24.50
2022-10-10T03:45:57.330Z,24.50
2022-10-10T03:48:33.422Z,24.50
2022-10-10T03:51:05.072Z,24.40
2022-10-10T03:53:48.101Z,24.40
2022-10-10T03:56:21.655Z,24.40
2022-10-10T03:58:56.923Z,24.30
2022-10-10T04:01:27.883Z,24.40
2022-10-10T04:03:59.913Z,24.30
2022-10-10T04:06:50.163Z,24.30
2022-10-10T04:09:26.392Z,24.30
2022-10-10T04:11:56.967Z,24.20
2022-10-10T04:14:30.321Z,24.20
2022-10-10T04:17:25.238Z,24.20
2022-10-10T04:19:57.433Z,24.10
2022-10-10T04:22:40.355Z,24.10
2022-10-10T04:25:15.038Z,24.10
2022-10-10T04:27:51.079Z,24.00
2022-10-10T04:30:22.452Z,23.90
2022-10-10T04:33:01.462Z,23.90
2022-10-10T04:35:47.186Z,23.90
2022-10-10T04:38:51.503Z,23.90
2022-10-10T04:41:23.451Z,23.80
2022-10-10T04:43:57.861Z,23.80
2022-10-10T04:46:33.928Z,23.80
2022-10-10T04:49:12.351Z,23.90
2022-10-10T04:51:59.005Z,23.80
2022-10-10T04:54:29.708Z,23.80
2022-10-10T04:57:03.912Z,23.80
2022-10-10T04:59:42.664Z,23.80
2022-10-10T05:02:11.963Z,23.70
2022-10-10T05:04:44.264Z,23.70
2022-10-10T05:07:21.034Z,23.70
2022-10-10T05:09:54.041Z,23.70
2022-10-10T05:12:30.700Z,23.70
2022-10-10T05:15:04.634Z,23.60
2022-10-10T05:17:43.295Z,23.60
2022-10-10T05:20:17.633Z,23.70
2022-10-10T05:22:51.095Z,23.60
2022-10-10T05:25:23.318Z,23.70
2022-10-10T05:27:55.984Z,23.70
2022-10-10T05:30:31.857Z,23.60
2022-10-10T05:33:01.645Z,23.50
2022-10-10T05:35:38.105Z,23.60
2022-10-10T05:38:13.833Z,23.50
2022-10-10T05:40:54.331Z,23.50
2022-10-10T05:43:28.124Z,23.50
2022-10-10T05:45:58.752Z,23.50
2022-10-10T05:48:39.432Z,23.50
2022-10-10T05:51:15.082Z,23.40
2022-10-10T05:53:57.742Z,23.40
2022-10-10T05:56:47.783Z,23.40
2022-10-10T05:59:23.136Z,23.40
2022-10-10T06:01:56.967Z,23.30
2022-10-10T06:04:29.849Z,23.30
2022-10-10T06:07:00.844Z,23.20
2022-10-10T06:09:34.139Z,23.30
2022-10-10T06:12:10.190Z,23.30
2022-10-10T06:14:43.519Z,23.20
2022-10-10T06:17:16.168Z,23.10
2022-10-10T06:19:51.093Z,23.20
2022-10-10T06:22:27.766Z,23.10
2022-10-10T06:24:59.237Z,23.10
2022-10-10T06:27:28.834Z,23.20
2022-10-10T06:30:01.220Z,23.10
2022-10-10T06:32:32.546Z,23.10
2022-10-10T06:35:11.911Z,23.10
2022-10-10T06:37:44.001Z,23.00
2022-10-10T06:40:15.761Z,23.00
2022-10-10T06:42:47.819Z,23.10
2022-10-10T06:45:20.567Z,23.00
2022-10-10T06:47:53.351Z,22.90
2022-10-10T06:50:29.513Z,22.90
2022-10-10T06:52:59.475Z,22.90
2022-10-10T06:55:33.166Z,23.00
2022-10-10T06:58:09.947Z,22.90
2022-10-10T07:01:15.507Z,22.90
2022-10-10T07:03:50.694Z,22.90
2022-10-10T07:06:22.821Z,22.90
2022-10-10T07:08:56.773Z,22.80
2022-10-10T07:11:38.469Z,22.80
2022-10-10T07:14:11.257Z,22.80
2022-10-10T07:16:44.325Z,22.90
2022-10-10T07:19:26.418Z,22.80
2022-10-10T07:21:58.486Z,22.80
2022-10-10T07:24:40.811Z,22.70
2022-10-10T07:27:17.214Z,22.60
2022-10-10T07:29:59.098Z,22.60
2022-10-10T07:32:29.596Z,22.60
2022-10-10T07:35:01.983Z,22.60
2022-10-10T07:37:40.615Z,22.60
2022-10-10T07:40:18.371Z,22.50
2022-10-10T07:43:01.775Z,22.40
2022-10-10T07:45:38.798Z,22.40
2022-10-10T07:48:15.758Z,22.40
2022-10-10T07:50:47.763Z,22.30
2022-10-10T07:53:18.669Z,22.30
2022-10-10T07:55:56.253Z,22.20
2022-10-10T07:58:29.048Z,22.20
2022-10-10T08:01:13.779Z,22.20
2022-10-10T08:03:44.900Z,22.10
2022-10-10T08:06:21.522Z,22.00
2022-10-10T08:08:56.388Z,22.10
2022-10-10T08:11:34.666Z,21.90
2022-10-10T08:14:14.376Z,21.90
2022-10-10T08:16:52.380Z,21.70
2022-10-10T08:19:21.705Z,21.60
2022-10-10T08:21:55.669Z,21.50
2022-10-10T08:24:30.955Z,21.50
2022-10-10T08:27:06.926Z,21.50
2022-10-10T08:29:48.651Z,21.40
2022-10-10T08:32:46.981Z,21.30
2022-10-10T08:35:17.033Z,21.30
2022-10-10T08:37:48.563Z,21.40
2022-10-10T08:40:28.207Z,21.40
2022-10-10T08:43:03.804Z,21.30
2022-10-10T08:45:45.028Z,21.30
2022-10-10T08:48:23.826Z,21.10
2022-10-10T08:51:02.738Z,21.10
2022-10-10T08:53:47.334Z,21.10
2022-10-10T08:56:29.064Z,21.10
2022-10-10T08:59:27.783Z,21.00
2022-10-10T09:02:43.693Z,21.00
2022-10-10T09:05:42.842Z,21.00
2022-10-10T09:08:42.867Z,21.00
2022-10-10T09:12:02.105Z,21.10
2022-10-10T09:15:02.425Z,21.00
2022-10-10T09:18:00.592Z,21.00
2022-10-10T09:20:58.046Z,20.90
2022-10-10T09:23:38.631Z,20.90
2022-10-10T09:26:17.972Z,20.80
2022-10-10T09:29:11.034Z,20.70
2022-10-10T09:32:26.376Z,20.70
2022-10-10T09:35:23.058Z,20.60
2022-10-10T09:39:01.870Z,20.70
2022-10-10T09:42:18.746Z,20.60
2022-10-10T09:44:55.904Z,20.50
2022-10-10T09:47:29.737Z,20.60
2022-10-10T09:50:10.607Z,20.70
2022-10-10T09:55:43.398Z,20.70
2022-10-10T10:01:27.640Z,20.80
2022-10-10T10:04:28.994Z,20.80
2022-10-10T10:07:40.284Z,20.80
2022-10-10T10:10:26.494Z,20.70
2022-10-10T10:12:59.999Z,20.70
2022-10-10T10:15:39.586Z,20.70
2022-10-10T10:18:33.494Z,20.50
2022-10-10T10:21:25.070Z,20.40
2022-10-10T10:24:52.940Z,20.40
2022-10-10T10:27:38.865Z,20.30
2022-10-10T10:30:45.169Z,20.20
2022-10-10T10:33:48.027Z,20.20
2022-10-10T10:36:41.862Z,20.20
2022-10-10T10:39:44.164Z,20.40
2022-10-10T10:42:44.703Z,20.50
2022-10-10T10:45:27.722Z,20.50
2022-10-10T10:48:24.289Z,20.50
2022-10-10T10:51:27.232Z,20.60
2022-10-10T10:54:40.807Z,20.60
2022-10-10T10:58:04.609Z,20.60
2022-10-10T11:01:24.348Z,20.70
2022-10-10T11:05:15.747Z,20.50
2022-10-10T11:07:18.953Z,20.40
2022-10-10T11:10:26.785Z,20.40
2022-10-10T11:13:16.957Z,20.30
2022-10-10T11:16:53.206Z,20.20
2022-10-10T11:19:35.915Z,20.10
2022-10-10T11:22:16.240Z,20.10
2022-10-10T11:25:06.718Z,20.10
2022-10-10T11:28:10.373Z,20.20
2022-10-10T11:30:56.102Z,20.30
2022-10-10T11:33:41.071Z,20.40
2022-10-10T11:36:42.446Z,20.40
2022-10-10T11:39:47.423Z,20.30
2022-10-10T11:42:39.438Z,20.40
2022-10-10T11:45:30.509Z,20.30
2022-10-10T11:48:34.504Z,20.10
2022-10-10T11:51:31.970Z,20.10
2022-10-10T11:54:53.214Z,20.10
2022-10-10T11:57:41.227Z,19.90
2022-10-10T12:00:20.024Z,19.90
2022-10-10T12:02:53.515Z,19.90
2022-10-10T12:05:50.146Z,19.80
2022-10-10T12:08:29.455Z,19.70
2022-10-10T12:11:25.372Z,19.60
2022-10-10T12:14:00.706Z,19.60
2022-10-10T12:16:46.161Z,19.70
2022-10-10T12:19:27.359Z,19.60
2022-10-10T12:22:15.778Z,19.50
2022-10-10T12:25:31.046Z,19.60
2022-10-10T12:28:16.681Z,19.50
2022-10-10T12:31:15.043Z,19.50
2022-10-10T12:34:25.190Z,19.50
2022-10-10T12:37:15.800Z,19.60
2022-10-10T12:40:13.274Z,19.60
2022-10-10T12:42:52.653Z,19.50
2022-10-10T12:45:51.421Z,19.50
2022-10-10T12:48:26.984Z,19.60
2022-10-10T12:51:04.919Z,19.60
2022-10-10T12:53:41.992Z,19.80
2022-10-10T12:56:16.343Z,19.70
2022-10-10T12:58:51.750Z,19.70
2022-10-10T13:01:55.639Z,19.80
2022-10-10T13:04:33.033Z,19.80
2022-10-10T13:07:11.209Z,19.80
2022-10-10T13:09:43.746Z,19.80
2022-10-10T13:12:37.691Z,19.90
2022-10-10T13:15:27.942Z,19.90
2022-10-10T13:17:59.245Z,20.00
2022-10-10T13:20:46.460Z,20.00
2022-10-10T13:23:21.626Z,20.00
2022-10-10T13:25:57.092Z,20.10
2022-10-10T13:28:37.765Z,20.20
2022-10-10T13:31:20.991Z,20.20
2022-10-10T13:34:48.428Z,20.20
2022-10-10T13:37:39.114Z,20.30
2022-10-10T13:40:25.438Z,20.40
2022-10-10T13:43:26.427Z,20.50
2022-10-10T13:46:04.400Z,20.60
2022-10-10T13:48:44.899Z,20.60
2022-10-10T13:51:23.959Z,20.70
2022-10-10T13:54:12.402Z,20.70
2022-10-10T13:56:45.379Z,20.90
2022-10-10T13:59:20.868Z,21.00
2022-10-10T14:02:06.303Z,21.00
2022-10-10T14:04:53.471Z,21.10
2022-10-10T14:07:29.727Z,21.10
2022-10-10T14:10:11.491Z,21.20
2022-10-10T14:12:58.697Z,21.40
2022-10-10T14:15:48.479Z,21.30
2022-10-10T14:18:23.107Z,21.40
2022-10-10T14:20:54.932Z,21.40
2022-10-10T14:23:26.803Z,21.50
2022-10-10T14:26:02.228Z,21.60
2022-10-10T14:28:44.086Z,21.70
2022-10-10T14:31:16.882Z,21.70
2022-10-10T14:33:50.070Z,21.90
2022-10-10T14:36:24.486Z,22.00
2022-10-10T14:38:55.695Z,21.90
2022-10-10T14:41:29.414Z,22.00
2022-10-10T14:43:59.510Z,22.10
2022-10-10T14:46:33.320Z,22.20
2022-10-10T14:49:24.187Z,22.20
2022-10-10T14:52:07.493Z,22.40
2022-10-10T14:54:49.205Z,22.50
2022-10-10T14:57:20.711Z,22.60
2022-10-10T15:00:03.756Z,22.60
2022-10-10T15:02:46.080Z,22.60
2022-10-10T15:05:19.137Z,22.80
2022-10-10T15:11:26.574Z,22.90
2022-10-10T15:14:01.261Z,22.70
2022-10-10T15:16:32.544Z,22.80
2022-10-10T15:19:14.769Z,22.90
2022-10-10T15:21:52.222Z,22.80
2022-10-10T15:24:23.990Z,23.00
2022-10-10T15:26:59.592Z,23.30
2022-10-10T15:32:27.781Z,23.50
2022-10-10T15:35:11.215Z,23.50
2022-10-10T15:37:45.589Z,23.50
2022-10-10T15:40:22.015Z,23.60
2022-10-10T15:42:54.125Z,23.60
2022-10-10T15:45:54.342Z,23.50
2022-10-10T15:48:28.544Z,23.60
2022-10-10T15:51:16.993Z,23.70
2022-10-10T15:53:53.446Z,23.80
2022-10-10T15:56:28.174Z,23.90
2022-10-10T15:59:01.449Z,24.10
2022-10-10T16:01:35.593Z,23.80
2022-10-10T16:04:12.787Z,23.80
2022-10-10T16:09:46.281Z,24.10
2022-10-10T16:12:22.609Z,24.30
2022-10-10T16:15:06.713Z,24.30
2022-10-10T16:17:41.069Z,24.30
2022-10-10T16:20:14.933Z,24.30
2022-10-10T16:22:58.110Z,24.30
2022-10-10T16:25:28.577Z,24.50
2022-10-10T16:28:08.983Z,24.50
2022-10-10T16:30:50.960Z,24.60
2022-10-10T16:33:26.868Z,24.70
2022-10-10T16:36:02.729Z,24.80
2022-10-10T16:38:37.388Z,24.70
2022-10-10T16:41:35.177Z,24.70
2022-10-10T16:44:07.577Z,24.70
2022-10-10T16:46:44.839Z,24.90
2022-10-10T16:49:21.669Z,24.90
2022-10-10T16:51:58.320Z,24.90
2022-10-10T16:54:30.430Z,24.90
2022-10-10T16:57:02.582Z,24.90
2022-10-10T16:59:37.132Z,24.80
2022-10-10T17:02:16.206Z,25.00
2022-10-10T17:04:49.285Z,25.20
2022-10-10T17:07:22.894Z,25.30
2022-10-10T17:09:56.527Z,25.30
2022-10-10T17:12:37.921Z,25.30
2022-10-10T17:15:10.122Z,25.30
2022-10-10T17:17:40.678Z,25.60
2022-10-10T17:20:19.238Z,25.70
2022-10-10T17:22:48.972Z,25.70
2022-10-10T17:25:28.246Z,25.50
2022-10-10T17:28:01.939Z,25.50
2022-10-10T17:30:31.945Z,25.60
2022-10-10T17:33:11.533Z,25.90
2022-10-10T17:35:48.374Z,25.70
2022-10-10T17:38:38.579Z,25.60
2022-10-10T17:41:14.782Z,25.80
2022-10-10T17:43:48.218Z,25.80
2022-10-10T17:46:39.545Z,25.70
2022-10-10T17:49:19.911Z,26.00
2022-10-10T17:51:52.380Z,25.90
2022-10-10T17:54:27.309Z,25.80
2022-10-10T17:56:58.466Z,26.00
2022-10-10T17:59:33.100Z,26.10
2022-10-10T18:02:06.174Z,26.10
2022-10-10T18:04:40.195Z,26.10
2022-10-10T18:07:15.058Z,26.20
2022-10-10T18:09:45.639Z,26.20
2022-10-10T18:12:17.983Z,26.20
2022-10-10T18:14:47.944Z,26.10
2022-10-10T18:17:20.444Z,26.10
2022-10-10T18:19:56.427Z,26.20
2022-10-10T18:22:27.249Z,26.10
2022-10-10T18:25:00.281Z,26.40
2022-10-10T18:27:36.773Z,26.30
2022-10-10T18:30:11.170Z,26.40
2022-10-10T18:32:46.973Z,26.40
2022-10-10T18:35:20.411Z,26.60
2022-10-10T18:37:52.584Z,26.70
2022-10-10T18:40:22.506Z,26.70
2022-10-10T18:42:57.364Z,26.80
2022-10-10T18:45:27.487Z,26.70
2022-10-10T18:48:12.110Z,26.80
2022-10-10T18:50:42.657Z,26.70
2022-10-10T18:53:15.296Z,26.90
2022-10-10T18:55:45.385Z,27.00
2022-10-10T18:58:19.600Z,26.90
2022-10-10T19:00:50.715Z,27.00
2022-10-10T19:03:30.903Z,27.00
2022-10-10T19:09:00.546Z,26.80
2022-10-10T19:11:40.152Z,26.70
2022-10-10T19:14:16.088Z,26.80
2022-10-10T19:16:53.720Z,27.00
2022-10-10T19:19:29.220Z,26.90
2022-10-10T19:22:01.893Z,27.00
2022-10-10T19:27:23.830Z,27.40
2022-10-10T19:30:09.354Z,27.30
2022-10-10T19:32:44.042Z,27.30
2022-10-10T19:35:24.148Z,27.50
2022-10-10T19:38:02.479Z,27.50
2022-10-10T19:40:35.566Z,27.60
2022-10-10T19:43:13.156Z,27.60
2022-10-10T19:45:44.532Z,27.30
2022-10-10T19:48:39.311Z,27.20
2022-10-10T19:51:14.517Z,27.30
2022-10-10T19:53:47.484Z,27.30
2022-10-10T19:56:25.618Z,27.40
2022-10-10T19:59:05.096Z,27.40
2022-10-10T20:01:42.012Z,27.60
2022-10-10T20:04:20.747Z,27.50
2022-10-10T20:06:55.995Z,27.40
2022-10-10T20:09:28.549Z,27.30
2022-10-10T20:12:01.718Z,27.30
2022-10-10T20:14:38.602Z,27.60
2022-10-10T20:17:14.128Z,27.50
2022-10-10T20:19:46.199Z,27.80
2022-10-10T20:22:16.984Z,27.60
2022-10-10T20:24:48.118Z,27.40
2022-10-10T20:27:20.062Z,27.40
2022-10-10T20:29:50.322Z,27.40
2022-10-10T20:32:21.711Z,27.40
2022-10-10T20:34:54.926Z,27.30
2022-10-10T20:37:27.575Z,27.20
2022-10-10T20:39:59.385Z,27.20
2022-10-10T20:42:30.549Z,27.20
2022-10-10T20:45:01.857Z,27.50
2022-10-10T20:47:41.517Z,27.50
2022-10-10T20:50:22.090Z,27.30
2022-10-10T20:52:55.383Z,27.30
2022-10-10T20:55:39.011Z,27.30
2022-10-10T20:58:17.631Z,27.40
2022-10-10T21:00:48.921Z,27.50
2022-10-10T21:03:22.128Z,27.40
2022-10-10T21:09:07.702Z,27.70
2022-10-10T21:11:40.912Z,27.60
2022-10-10T21:14:16.509Z,27.70
2022-10-10T21:16:47.182Z,27.80
2022-10-10T21:19:27.104Z,27.70
2022-10-10T21:21:57.969Z,27.80
2022-10-10T21:24:31.704Z,28.00
2022-10-10T21:27:02.889Z,27.80
2022-10-10T21:29:42.727Z,28.00
2022-10-10T21:32:23.409Z,27.90
2022-10-10T21:34:57.514Z,27.80
2022-10-10T21:37:29.961Z,27.80
2022-10-10T21:40:00.831Z,27.60
2022-10-10T21:42:40.226Z,27.60
2022-10-10T21:45:23.026Z,27.40
2022-10-10T21:48:05.431Z,27.40
2022-10-10T21:50:50.073Z,27.40
2022-10-10T21:53:24.612Z,27.40
2022-10-10T21:56:11.824Z,27.40
2022-10-10T21:58:46.269Z,27.30
2022-10-10T22:01:24.774Z,27.30
2022-10-10T22:03:56.741Z,27.20
2022-10-10T22:06:33.854Z,27.20
2022-10-10T22:09:07.169Z,27.20
2022-10-10T22:11:39.809Z,27.20
2022-10-10T22:14:12.984Z,27.20
2022-10-10T22:16:56.013Z,27.20
2022-10-10T22:19:27.572Z,27.30
2022-10-10T22:22:00.148Z,27.30
2022-10-10T22:24:35.879Z,27.40
2022-10-10T22:27:06.445Z,27.40
2022-10-10T22:29:43.682Z,27.30
2022-10-10T22:32:24.954Z,27.30
2022-10-10T22:35:01.145Z,27.30
2022-10-10T22:37:38.081Z,27.30
2022-10-10T22:40:15.151Z,27.30
2022-10-10T22:42:49.031Z,27.20
2022-10-10T22:50:38.561Z,27.10
2022-10-10T22:53:12.315Z,27.10
2022-10-10T22:55:47.346Z,27.00
2022-10-10T22:58:23.564Z,27.10
2022-10-10T23:00:53.628Z,27.10
2022-10-10T23:03:26.183Z,27.00
2022-10-10T23:06:00.802Z,27.00
2022-10-10T23:08:37.662Z,26.90
2022-10-10T23:11:15.649Z,26.90
2022-10-10T23:13:50.808Z,27.00
2022-10-10T23:16:22.884Z,27.00
2022-10-10T23:18:55.454Z,27.10
2022-10-10T23:21:34.371Z,26.90
2022-10-10T23:24:04.795Z,27.00
2022-10-10T23:26:35.184Z,26.90
2022-10-10T23:29:10.018Z,26.90
2022-10-10T23:31:40.060Z,26.80
2022-10-10T23:34:12.551Z,26.80
2022-10-10T23:36:48.333Z,26.90
2022-10-10T23:39:25.372Z,26.80
2022-10-10T23:42:03.343Z,26.80
2022-10-10T23:44:34.687Z,26.70
2022-10-10T23:47:06.844Z,26.70
2022-10-10T23:49:37.564Z,26.70
2022-10-10T23:52:10.918Z,26.60
2022-10-10T23:54:49.439Z,26.60
2022-10-10T23:57:27.287Z,26.60
